Time;durP1;ratioP1;P1;durP2;ratioP2;P2;SDS_P1;SDS_P2;PMS_P1;PMS_P2;Temp;Humidity;BMP_temperature;BMP_pressure;BME280_temperature;BME280_humidity;BME280_pressure;Samples;Min_cycle;Max_cycle;Signal;HPM_P1;HPM_P2
2021/12/02 00:01:18;;;;;;;4.57;0.90;;;1.50;99.90;;;;;;5035154;28;20479;-50
2021/12/02 00:03:46;;;;;;;3.83;1.10;;;1.50;99.90;;;;;;5035528;28;20033;-48
2021/12/02 00:06:14;;;;;;;4.05;0.80;;;1.50;99.90;;;;;;5030377;28;20026;-56
2021/12/02 00:08:40;;;;;;;3.13;1.30;;;1.50;99.90;;;;;;5027909;28;20110;-49
2021/12/02 00:11:06;;;;;;;4.50;1.33;;;1.50;99.90;;;;;;5042961;28;20082;-54
2021/12/02 00:13:44;;;;;;;2.97;0.95;;;1.50;99.90;;;;;;5038682;28;20530;-49
2021/12/02 00:16:21;;;;;;;3.65;0.95;;;1.50;99.90;;;;;;5048023;28;20511;-48
2021/12/02 00:21:24;;;;;;;4.75;0.80;;;1.60;99.90;;;;;;5032030;28;20025;-50
2021/12/02 00:24:00;;;;;;;6.15;1.20;;;1.60;99.90;;;;;;5028312;28;20075;-54
2021/12/02 00:26:27;;;;;;;2.30;0.88;;;1.60;99.90;;;;;;5042805;28;20028;-49
2021/12/02 00:28:56;;;;;;;5.18;0.80;;;1.60;99.90;;;;;;5047880;28;20029;-50
2021/12/02 00:31:24;;;;;;;3.08;0.65;;;1.60;99.90;;;;;;5029002;28;20034;-51
2021/12/02 00:33:56;;;;;;;4.55;1.02;;;1.60;99.90;;;;;;5028236;28;20045;-51
2021/12/02 00:36:24;;;;;;;3.10;0.70;;;1.60;99.90;;;;;;5028703;28;20032;-49
2021/12/02 00:38:51;;;;;;;5.35;1.25;;;1.60;99.90;;;;;;5027850;28;20133;-49
2021/12/02 00:41:22;;;;;;;3.90;0.80;;;1.60;99.90;;;;;;5044386;28;20017;-52
2021/12/02 00:43:49;;;;;;;5.00;0.90;;;1.60;99.90;;;;;;5047756;28;20421;-55
2021/12/02 00:46:17;;;;;;;4.45;1.13;;;1.60;99.90;;;;;;5035048;28;20104;-50
2021/12/02 00:48:43;;;;;;;3.17;1.25;;;1.60;99.90;;;;;;5039178;28;20075;-55
2021/12/02 00:51:10;;;;;;;1.10;0.90;;;1.60;99.90;;;;;;5045429;28;20029;-55
2021/12/02 00:53:42;;;;;;;6.15;1.45;;;1.60;99.90;;;;;;5045592;28;20032;-52
2021/12/02 00:56:11;;;;;;;2.03;0.80;;;1.60;99.90;;;;;;5042416;28;20052;-49
2021/12/02 00:58:38;;;;;;;3.30;0.75;;;1.60;99.90;;;;;;5027164;28;20014;-54
2021/12/02 01:01:04;;;;;;;7.03;1.33;;;1.60;99.90;;;;;;5028501;28;20025;-52
2021/12/02 01:03:35;;;;;;;7.32;1.20;;;1.60;99.90;;;;;;5027951;28;20061;-49
2021/12/02 01:06:05;;;;;;;4.60;0.68;;;1.60;99.90;;;;;;5030033;28;20628;-56
2021/12/02 01:08:32;;;;;;;3.70;1.30;;;1.60;99.90;;;;;;5027614;28;20507;-48
2021/12/02 01:10:58;;;;;;;8.18;1.17;;;1.60;99.90;;;;;;5027898;28;20489;-50
2021/12/02 01:13:24;;;;;;;5.80;1.10;;;1.60;99.90;;;;;;5039702;28;20028;-52
2021/12/02 01:15:50;;;;;;;4.35;1.08;;;1.60;99.90;;;;;;5027799;28;20596;-56
2021/12/02 01:18:16;;;;;;;4.63;0.90;;;1.50;99.90;;;;;;5027417;28;20076;-54
2021/12/02 01:20:47;;;;;;;4.05;0.80;;;1.50;99.90;;;;;;5027099;28;20504;-55
2021/12/02 01:23:13;;;;;;;2.78;0.73;;;1.50;99.90;;;;;;5044358;28;20033;-49
2021/12/02 01:25:40;;;;;;;2.17;0.65;;;1.50;99.90;;;;;;5033772;28;20083;-49
2021/12/02 01:28:07;;;;;;;4.25;0.95;;;1.50;99.90;;;;;;5032313;28;20443;-53
2021/12/02 01:30:33;;;;;;;2.65;1.08;;;1.40;99.90;;;;;;5044407;28;20040;-49
2021/12/02 01:33:04;;;;;;;3.25;0.80;;;1.40;99.90;;;;;;5030646;28;20026;-50
2021/12/02 01:35:31;;;;;;;1.65;0.55;;;1.40;99.90;;;;;;5029197;28;20017;-56
2021/12/02 01:37:57;;;;;;;1.83;0.68;;;1.40;99.90;;;;;;5043463;28;20060;-48
2021/12/02 01:40:24;;;;;;;3.67;0.90;;;1.40;99.90;;;;;;5050194;28;20036;-50
2021/12/02 01:42:55;;;;;;;1.35;0.43;;;1.40;99.90;;;;;;5037450;28;20461;-49
2021/12/02 01:45:24;;;;;;;5.05;0.60;;;1.40;99.90;;;;;;5043871;28;20041;-55
2021/12/02 01:47:53;;;;;;;5.57;0.85;;;1.30;99.90;;;;;;5032364;28;20051;-48
2021/12/02 01:50:24;;;;;;;2.65;0.70;;;1.30;99.90;;;;;;5039458;28;20480;-54
2021/12/02 01:52:55;;;;;;;4.00;0.88;;;1.30;99.90;;;;;;5039055;28;20662;-51
2021/12/02 01:55:22;;;;;;;4.45;0.80;;;1.30;99.90;;;;;;5044535;28;20047;-52
2021/12/02 01:58:01;;;;;;;1.02;0.40;;;1.30;99.90;;;;;;5048802;28;20029;-55
2021/12/02 02:00:43;;;;;;;3.92;0.70;;;1.30;99.90;;;;;;5048171;28;20051;-56
2021/12/02 02:03:10;;;;;;;4.03;0.65;;;1.20;99.90;;;;;;5007695;28;20068;-49
2021/12/02 02:05:36;;;;;;;3.45;0.82;;;1.30;99.90;;;;;;5030151;28;20504;-49
2021/12/02 02:08:16;;;;;;;4.35;0.98;;;1.20;99.90;;;;;;5048398;28;20071;-50
2021/12/02 02:10:43;;;;;;;3.05;0.75;;;1.20;99.90;;;;;;5039464;28;20033;-52
2021/12/02 02:13:10;;;;;;;3.60;0.93;;;1.20;99.90;;;;;;5044859;28;20028;-51
2021/12/02 02:15:41;;;;;;;1.77;0.70;;;1.10;99.90;;;;;;5049714;28;20500;-54
2021/12/02 02:23:29;;;;;;;3.97;0.70;;;1.10;99.90;;;;;;5047887;28;20029;-54
2021/12/02 02:25:55;;;;;;;2.85;0.45;;;1.10;99.90;;;;;;5049450;28;20025;-49
2021/12/02 02:28:21;;;;;;;2.40;0.63;;;1.00;99.90;;;;;;5049749;28;20115;-48
2021/12/02 02:30:47;;;;;;;3.00;0.60;;;1.00;99.90;;;;;;5049779;28;20109;-49
2021/12/02 02:33:13;;;;;;;5.82;0.65;;;1.00;99.90;;;;;;5048368;28;20538;-50
2021/12/02 02:35:40;;;;;;;1.83;0.63;;;1.00;99.90;;;;;;5040270;28;20041;-49
2021/12/02 02:38:06;;;;;;;2.75;0.50;;;1.00;99.90;;;;;;5029494;28;20497;-56
2021/12/02 02:40:33;;;;;;;3.78;0.70;;;1.00;99.90;;;;;;5028643;28;20136;-51
2021/12/02 02:43:05;;;;;;;2.78;0.75;;;1.00;99.90;;;;;;5029122;28;20021;-54
2021/12/02 02:45:31;;;;;;;1.83;0.77;;;1.00;99.90;;;;;;5029802;28;20029;-48
2021/12/02 02:47:56;;;;;;;3.40;0.68;;;1.00;99.90;;;;;;5029013;28;20546;-53
2021/12/02 02:50:22;;;;;;;1.05;0.60;;;1.00;99.90;;;;;;5034721;28;20025;-50
2021/12/02 02:52:49;;;;;;;1.98;0.63;;;1.00;99.90;;;;;;5049489;28;20040;-51
2021/12/02 02:55:22;;;;;;;3.47;1.10;;;1.00;99.90;;;;;;5047742;28;20032;-51
2021/12/02 02:58:04;;;;;;;4.35;0.95;;;1.00;99.90;;;;;;5049466;28;20032;-50
2021/12/02 03:00:34;;;;;;;1.38;0.70;;;0.90;99.90;;;;;;5048942;28;20392;-50
2021/12/02 03:05:34;;;;;;;1.45;0.25;;;0.90;99.90;;;;;;5034875;28;20033;-51
2021/12/02 03:08:11;;;;;;;0.90;0.30;;;0.90;99.90;;;;;;5029324;28;20128;-52
2021/12/02 03:13:19;;;;;;;2.25;0.50;;;1.00;99.90;;;;;;5058674;23;20068;-54
2021/12/02 03:18:31;;;;;;;1.80;0.40;;;0.90;99.90;;;;;;5048598;28;20109;-57
2021/12/02 03:20:56;;;;;;;4.85;0.68;;;0.90;99.90;;;;;;5049015;28;20140;-53
2021/12/02 03:23:23;;;;;;;1.20;0.50;;;0.90;99.90;;;;;;5048959;28;20025;-55
2021/12/02 03:25:49;;;;;;;1.65;0.43;;;0.90;99.90;;;;;;5046214;28;20029;-54
2021/12/02 03:28:15;;;;;;;3.45;0.65;;;0.90;99.90;;;;;;5037095;28;20030;-55
2021/12/02 03:30:40;;;;;;;4.43;0.50;;;0.90;99.90;;;;;;5042683;28;20496;-54
2021/12/02 03:33:06;;;;;;;0.90;0.45;;;0.80;99.90;;;;;;5048689;28;20028;-54
2021/12/02 03:35:32;;;;;;;1.73;0.47;;;0.80;99.90;;;;;;5036955;28;20639;-55
2021/12/02 03:37:57;;;;;;;1.17;0.70;;;0.80;99.90;;;;;;5028800;28;20056;-54
2021/12/02 03:40:23;;;;;;;1.73;0.38;;;0.80;99.90;;;;;;5037145;28;20096;-55
2021/12/02 03:42:52;;;;;;;0.30;0.20;;;0.80;99.90;;;;;;5046871;28;20033;-54
2021/12/02 03:45:18;;;;;;;1.35;0.30;;;0.70;99.90;;;;;;5048143;28;20047;-54
2021/12/02 03:47:44;;;;;;;0.82;0.52;;;0.70;99.90;;;;;;5028714;28;20037;-52
2021/12/02 03:50:10;;;;;;;1.98;0.50;;;0.70;99.90;;;;;;5028315;28;20500;-52
2021/12/02 03:52:36;;;;;;;1.25;0.50;;;0.60;99.90;;;;;;5028326;28;20486;-55
2021/12/02 03:55:03;;;;;;;3.45;0.47;;;0.60;99.90;;;;;;5029708;28;20026;-54
2021/12/02 03:57:31;;;;;;;0.40;0.40;;;0.60;99.90;;;;;;5044499;28;20036;-54
2021/12/02 03:59:57;;;;;;;2.10;0.55;;;0.60;99.90;;;;;;5014478;28;20014;-54
2021/12/02 04:02:23;;;;;;;1.70;0.43;;;0.50;99.90;;;;;;5028270;28;20021;-53
2021/12/02 04:04:48;;;;;;;1.20;0.30;;;0.50;99.90;;;;;;5028592;28;20074;-53
2021/12/02 04:07:17;;;;;;;2.40;0.60;;;0.50;99.90;;;;;;5048278;28;20107;-51
2021/12/02 04:09:44;;;;;;;0.22;0.20;;;0.50;99.90;;;;;;5037536;28;20061;-53
2021/12/02 04:14:49;;;;;;;1.35;0.47;;;0.50;99.90;;;;;;5041092;28;20112;-51
2021/12/02 04:17:14;;;;;;;0.85;0.45;;;0.50;99.90;;;;;;5063597;28;20052;-51
2021/12/02 04:19:40;;;;;;;2.08;0.30;;;0.50;99.90;;;;;;5063029;28;20489;-53
2021/12/02 04:22:06;;;;;;;4.25;0.75;;;0.50;99.90;;;;;;5046316;28;20029;-54
2021/12/02 04:24:32;;;;;;;3.22;0.35;;;0.50;99.90;;;;;;5046115;28;20505;-53
2021/12/02 04:26:58;;;;;;;0.88;0.52;;;0.50;99.90;;;;;;5040769;28;20140;-52
2021/12/02 04:29:24;;;;;;;1.77;0.57;;;0.40;99.90;;;;;;5026453;28;20040;-52
2021/12/02 04:31:51;;;;;;;3.28;0.40;;;0.50;99.90;;;;;;5060083;28;20021;-53
2021/12/02 04:34:17;;;;;;;1.88;0.73;;;0.40;99.90;;;;;;5045007;28;20025;-55
2021/12/02 04:36:43;;;;;;;2.40;1.05;;;0.40;99.90;;;;;;5046882;28;20599;-55
2021/12/02 04:39:09;;;;;;;2.28;0.55;;;0.40;99.90;;;;;;5047379;28;20028;-52
2021/12/02 04:41:35;;;;;;;2.50;0.63;;;0.40;99.90;;;;;;5033586;28;20017;-53
2021/12/02 04:44:01;;;;;;;1.27;0.65;;;0.40;99.90;;;;;;5040499;28;20052;-51
2021/12/02 04:46:27;;;;;;;1.90;0.60;;;0.40;99.90;;;;;;5026800;28;20053;-53
2021/12/02 04:48:54;;;;;;;2.30;0.68;;;0.40;99.90;;;;;;5029071;28;20049;-51
2021/12/02 04:51:19;;;;;;;2.55;0.77;;;0.30;99.90;;;;;;5028302;28;20458;-53
2021/12/02 04:53:45;;;;;;;0.98;0.60;;;0.40;99.90;;;;;;5029006;28;20021;-52
2021/12/02 04:56:10;;;;;;;2.50;0.73;;;0.30;99.90;;;;;;5027615;28;20092;-52
2021/12/02 04:58:36;;;;;;;4.40;0.40;;;0.40;99.90;;;;;;5028690;28;20056;-53
2021/12/02 05:01:02;;;;;;;2.47;0.43;;;0.30;99.90;;;;;;5027942;28;20056;-50
2021/12/02 05:03:28;;;;;;;3.63;0.80;;;0.30;99.90;;;;;;5027797;28;20043;-49
2021/12/02 05:05:53;;;;;;;2.13;0.60;;;0.30;99.90;;;;;;5040729;28;20037;-51
2021/12/02 05:08:19;;;;;;;4.40;1.50;;;0.30;99.90;;;;;;5051404;28;20124;-50
2021/12/02 05:10:44;;;;;;;4.35;1.08;;;0.30;99.90;;;;;;5049408;28;20128;-52
2021/12/02 05:13:10;;;;;;;5.88;1.90;;;0.30;99.90;;;;;;5050909;28;20040;-50
2021/12/02 05:15:35;;;;;;;4.18;1.00;;;0.30;99.90;;;;;;5066433;28;20139;-53
2021/12/02 05:18:04;;;;;;;2.35;0.70;;;0.30;99.90;;;;;;5050599;28;20060;-50
2021/12/02 05:20:30;;;;;;;2.00;0.70;;;0.30;99.90;;;;;;5039710;28;20037;-50
2021/12/02 05:22:55;;;;;;;1.88;0.75;;;0.20;99.90;;;;;;5032760;28;20029;-50
2021/12/02 05:25:21;;;;;;;2.72;0.60;;;0.20;99.90;;;;;;5032814;28;20172;-47
2021/12/02 05:27:47;;;;;;;2.08;0.93;;;0.20;99.90;;;;;;5045699;28;20041;-51
2021/12/02 05:30:12;;;;;;;3.15;1.15;;;0.10;99.90;;;;;;5029851;28;20080;-49
2021/12/02 05:32:38;;;;;;;1.02;0.45;;;0.10;99.90;;;;;;5034940;28;20032;-52
2021/12/02 05:35:04;;;;;;;2.35;0.75;;;0.10;99.90;;;;;;5015302;28;20025;-49
2021/12/02 05:37:30;;;;;;;3.58;1.02;;;0.10;99.90;;;;;;5011285;28;20034;-49
2021/12/02 05:39:56;;;;;;;3.97;1.10;;;0.10;99.90;;;;;;5032956;28;20036;-50
2021/12/02 05:42:21;;;;;;;2.15;0.82;;;0.10;99.90;;;;;;5036418;28;20045;-51
2021/12/02 05:44:47;;;;;;;4.43;1.15;;;0.20;99.90;;;;;;5031094;28;20033;-48
2021/12/02 05:47:13;;;;;;;3.65;0.88;;;0.10;99.90;;;;;;5034917;28;20082;-51
2021/12/02 05:49:39;;;;;;;6.60;1.10;;;0.20;99.90;;;;;;5050240;28;20451;-49
2021/12/02 05:52:05;;;;;;;1.83;1.00;;;0.20;99.90;;;;;;5050873;28;20032;-51
2021/12/02 05:54:30;;;;;;;6.93;1.05;;;0.20;99.90;;;;;;5048815;28;20029;-49
2021/12/02 05:56:56;;;;;;;4.13;0.98;;;0.20;99.90;;;;;;5049975;28;20413;-51
2021/12/02 05:59:22;;;;;;;5.65;1.02;;;0.20;99.90;;;;;;5050570;28;20103;-51
2021/12/02 06:01:48;;;;;;;4.18;0.68;;;0.30;99.90;;;;;;5050521;28;20033;-50
2021/12/02 06:04:14;;;;;;;3.72;0.60;;;0.20;99.90;;;;;;5036820;28;20057;-49
2021/12/02 06:06:41;;;;;;;3.45;0.70;;;0.30;99.90;;;;;;5049368;28;20532;-48
2021/12/02 06:09:07;;;;;;;7.75;1.50;;;0.20;99.90;;;;;;5049572;28;20029;-51
2021/12/02 06:11:33;;;;;;;3.30;0.70;;;0.20;99.90;;;;;;5030806;28;20033;-48
2021/12/02 06:13:59;;;;;;;4.57;1.55;;;0.20;99.90;;;;;;5028870;28;20041;-50
2021/12/02 06:16:25;;;;;;;3.50;0.80;;;0.20;99.90;;;;;;5061991;28;20080;-51
2021/12/02 06:18:50;;;;;;;2.30;1.25;;;0.20;99.90;;;;;;5025154;28;20034;-52
2021/12/02 06:21:16;;;;;;;4.50;1.42;;;0.20;99.90;;;;;;5027849;28;20410;-49
2021/12/02 06:23:42;;;;;;;4.20;1.30;;;0.20;99.90;;;;;;5030490;28;20034;-50
2021/12/02 06:26:09;;;;;;;2.38;1.10;;;0.20;99.90;;;;;;5031497;28;20043;-49
2021/12/02 06:28:35;;;;;;;2.40;1.10;;;0.10;99.90;;;;;;5030398;28;20519;-49
2021/12/02 06:31:03;;;;;;;3.33;1.08;;;0.10;99.90;;;;;;5049682;28;20029;-49
2021/12/02 06:33:30;;;;;;;3.17;1.30;;;0.10;99.90;;;;;;5038400;28;20068;-51
2021/12/02 06:35:56;;;;;;;7.20;1.63;;;0.10;99.90;;;;;;5029437;28;20511;-49
2021/12/02 06:38:21;;;;;;;2.47;1.00;;;0.00;99.90;;;;;;5029910;28;20095;-52
2021/12/02 06:40:47;;;;;;;3.20;1.05;;;-0.10;99.90;;;;;;5028645;28;20044;-50
2021/12/02 06:43:16;;;;;;;4.13;1.40;;;0.00;99.90;;;;;;5061402;28;20526;-49
2021/12/02 06:45:42;;;;;;;6.25;1.20;;;0.00;99.90;;;;;;5043281;28;20032;-47
2021/12/02 06:48:08;;;;;;;3.30;1.38;;;0.00;99.90;;;;;;5047930;28;20134;-49
2021/12/02 06:50:36;;;;;;;3.67;1.10;;;-0.10;99.90;;;;;;5033017;28;20085;-50
2021/12/02 06:53:01;;;;;;;2.63;0.80;;;-0.10;99.90;;;;;;5048288;28;20083;-48
2021/12/02 06:55:27;;;;;;;3.92;1.27;;;-0.10;99.90;;;;;;5048041;28;20032;-49
2021/12/02 06:57:53;;;;;;;3.88;1.20;;;-0.10;99.90;;;;;;5048701;28;20024;-48
2021/12/02 07:00:21;;;;;;;5.45;0.98;;;-0.10;99.90;;;;;;5043075;28;20037;-49
2021/12/02 07:02:47;;;;;;;2.70;0.80;;;-0.20;99.90;;;;;;5041691;28;20035;-51
2021/12/02 07:05:16;;;;;;;3.53;1.10;;;-0.20;99.90;;;;;;5044642;28;20500;-50
2021/12/02 07:07:42;;;;;;;4.07;1.15;;;-0.20;99.90;;;;;;5048474;28;20036;-48
2021/12/02 07:10:14;;;;;;;3.35;1.27;;;-0.20;99.90;;;;;;5044735;28;20181;-50
2021/12/02 07:12:42;;;;;;;5.35;1.35;;;-0.30;99.90;;;;;;5028676;28;20512;-48
2021/12/02 07:15:26;;;;;;;1.85;1.00;;;-0.30;99.90;;;;;;5044345;28;20516;-48
2021/12/02 07:18:00;;;;;;;4.50;1.20;;;-0.30;99.90;;;;;;5029141;28;20033;-48
2021/12/02 07:20:29;;;;;;;2.63;1.10;;;-0.30;99.90;;;;;;5028412;28;20493;-52
2021/12/02 07:22:56;;;;;;;5.10;0.77;;;-0.40;99.90;;;;;;5059876;28;20128;-50
2021/12/02 07:25:21;;;;;;;2.85;0.90;;;-0.40;99.90;;;;;;5027844;28;20037;-50
2021/12/02 07:27:47;;;;;;;5.22;0.88;;;-0.40;99.90;;;;;;5028512;28;20037;-50
2021/12/02 07:30:14;;;;;;;1.55;1.27;;;-0.50;99.90;;;;;;5029292;28;20029;-50
2021/12/02 07:32:40;;;;;;;1.65;0.98;;;-0.40;99.90;;;;;;5028386;28;20076;-49
2021/12/02 07:35:25;;;;;;;2.55;1.23;;;-0.50;99.90;;;;;;5027330;28;20074;-48
2021/12/02 07:37:54;;;;;;;2.55;1.08;;;-0.50;99.90;;;;;;5028815;28;20106;-49
2021/12/02 07:40:21;;;;;;;2.65;1.02;;;-0.50;99.90;;;;;;5028371;28;20508;-47
2021/12/02 07:42:51;;;;;;;5.95;1.33;;;-0.50;99.90;;;;;;5029097;28;20040;-48
2021/12/02 07:45:18;;;;;;;3.13;1.17;;;-0.50;99.90;;;;;;5027344;28;20059;-49
2021/12/02 07:47:44;;;;;;;5.75;1.20;;;-0.50;99.90;;;;;;5025208;28;20037;-50
2021/12/02 07:50:13;;;;;;;2.63;1.00;;;-0.50;99.90;;;;;;5026439;28;20138;-51
2021/12/02 07:52:45;;;;;;;2.10;1.17;;;-0.50;99.90;;;;;;5026969;28;20045;-48
2021/12/02 07:55:13;;;;;;;4.18;1.05;;;-0.60;99.90;;;;;;5023831;28;20032;-49
2021/12/02 07:57:42;;;;;;;4.53;1.08;;;-0.60;99.90;;;;;;5027145;28;20048;-49
2021/12/02 08:00:09;;;;;;;3.47;1.67;;;-0.60;99.90;;;;;;5028291;28;20405;-50
2021/12/02 08:02:35;;;;;;;3.67;0.95;;;-0.60;99.90;;;;;;5028258;28;20121;-51
2021/12/02 08:05:01;;;;;;;3.38;1.30;;;-0.60;99.90;;;;;;5026737;28;20119;-48
2021/12/02 08:07:27;;;;;;;1.67;0.93;;;-0.60;99.90;;;;;;5028614;28;20029;-49
2021/12/02 08:09:53;;;;;;;5.78;1.30;;;-0.50;99.90;;;;;;5026729;28;20094;-49
2021/12/02 08:12:18;;;;;;;1.88;0.95;;;-0.50;99.90;;;;;;5026521;28;20040;-49
2021/12/02 08:14:44;;;;;;;5.85;1.48;;;-0.50;99.90;;;;;;5028425;28;20026;-49
2021/12/02 08:17:10;;;;;;;3.65;1.70;;;-0.50;99.90;;;;;;5060516;28;20437;-48
2021/12/02 08:19:35;;;;;;;8.23;2.03;;;-0.40;99.90;;;;;;5028204;28;20108;-48
2021/12/02 08:22:01;;;;;;;7.53;2.17;;;-0.40;99.90;;;;;;5028511;28;20089;-48
2021/12/02 08:24:27;;;;;;;2.75;1.40;;;-0.30;99.90;;;;;;5059856;28;20029;-47
2021/12/02 08:26:53;;;;;;;3.70;1.15;;;-0.30;99.90;;;;;;5060513;28;20053;-51
2021/12/02 08:29:19;;;;;;;2.15;0.80;;;-0.20;99.90;;;;;;5028435;28;20104;-46
2021/12/02 08:31:45;;;;;;;6.50;1.17;;;-0.20;99.90;;;;;;5028056;28;20056;-51
2021/12/02 08:34:11;;;;;;;5.65;2.10;;;-0.20;99.90;;;;;;5028175;28;20026;-47
2021/12/02 08:36:49;;;;;;;4.43;1.33;;;-0.10;99.90;;;;;;5026385;28;20092;-48
2021/12/02 08:39:17;;;;;;;2.65;1.13;;;-0.10;99.90;;;;;;5026844;28;20025;-49
2021/12/02 08:41:48;;;;;;;2.20;1.27;;;0.00;99.90;;;;;;5032324;28;20025;-48
2021/12/02 08:44:14;;;;;;;3.25;1.23;;;0.00;99.90;;;;;;5039113;28;20021;-47
2021/12/02 08:46:40;;;;;;;4.10;1.10;;;0.00;99.90;;;;;;5051958;28;20025;-48
2021/12/02 08:49:06;;;;;;;3.85;1.17;;;0.10;99.90;;;;;;5051821;28;20596;-52
2021/12/02 08:51:32;;;;;;;4.13;1.30;;;0.10;99.90;;;;;;5050688;28;20495;-48
2021/12/02 08:53:58;;;;;;;2.45;1.00;;;0.20;99.90;;;;;;5045590;28;20025;-47
2021/12/02 08:56:23;;;;;;;3.63;1.00;;;0.20;99.90;;;;;;5030531;28;20219;-50
2021/12/02 08:58:51;;;;;;;7.72;1.88;;;0.30;99.90;;;;;;5031721;28;20709;-47
2021/12/02 09:01:16;;;;;;;3.65;1.77;;;0.30;99.90;;;;;;5030686;28;20029;-49
2021/12/02 09:03:42;;;;;;;4.53;1.25;;;0.30;99.90;;;;;;5031528;28;20168;-51
2021/12/02 09:06:11;;;;;;;3.58;1.10;;;0.40;99.90;;;;;;5032056;28;20493;-48
2021/12/02 09:08:38;;;;;;;5.50;1.38;;;0.40;99.90;;;;;;5031045;28;20073;-48
2021/12/02 09:11:04;;;;;;;1.35;0.95;;;0.50;99.90;;;;;;5030664;28;20048;-49
2021/12/02 09:13:31;;;;;;;3.53;1.35;;;0.60;99.90;;;;;;5056696;23;20473;-60
2021/12/02 09:15:57;;;;;;;5.10;1.50;;;0.60;99.90;;;;;;5050522;28;20036;-57
2021/12/02 09:18:23;;;;;;;4.43;1.80;;;0.70;99.90;;;;;;5049573;28;20017;-58
2021/12/02 09:20:49;;;;;;;6.75;1.45;;;0.70;99.90;;;;;;5051622;28;20021;-60
2021/12/02 09:23:15;;;;;;;5.25;1.17;;;0.80;99.90;;;;;;5050869;28;20036;-56
2021/12/02 09:25:41;;;;;;;3.22;1.17;;;0.80;99.90;;;;;;5051027;28;20104;-56
2021/12/02 09:28:09;;;;;;;4.35;1.25;;;0.90;99.90;;;;;;5051251;28;20469;-58
2021/12/02 09:30:35;;;;;;;4.80;1.60;;;1.00;99.90;;;;;;5036205;28;20070;-59
2021/12/02 09:33:01;;;;;;;2.30;1.27;;;1.00;99.90;;;;;;5032370;28;20104;-61
2021/12/02 09:35:27;;;;;;;3.15;1.27;;;1.10;99.90;;;;;;5042489;28;20096;-59
2021/12/02 09:37:52;;;;;;;5.65;1.10;;;1.20;99.90;;;;;;5030756;28;20401;-59
2021/12/02 09:40:19;;;;;;;4.07;1.05;;;1.20;99.90;;;;;;5031331;28;20033;-58
2021/12/02 09:42:46;;;;;;;3.72;1.25;;;1.30;99.90;;;;;;5032208;28;20047;-57
2021/12/02 09:45:12;;;;;;;4.60;1.38;;;1.30;99.90;;;;;;5030859;28;20105;-57
2021/12/02 09:47:40;;;;;;;5.03;0.98;;;1.30;99.90;;;;;;5031894;28;20033;-59
2021/12/02 09:50:18;;;;;;;2.88;1.30;;;1.40;99.90;;;;;;5030618;28;20507;-58
2021/12/02 09:52:44;;;;;;;2.35;1.38;;;1.40;99.90;;;;;;5027315;28;20033;-54
2021/12/02 09:57:47;;;;;;;12.90;1.80;;;1.50;99.90;;;;;;5030477;28;20033;-56
2021/12/02 10:00:18;;;;;;;4.22;1.35;;;1.60;99.90;;;;;;5030749;28;20022;-59
2021/12/02 10:02:53;;;;;;;2.83;1.23;;;1.60;99.90;;;;;;5030576;28;20444;-56
2021/12/02 10:05:39;;;;;;;3.90;1.33;;;1.60;99.90;;;;;;5045128;28;20025;-54
2021/12/02 10:08:08;;;;;;;6.05;1.33;;;1.60;99.90;;;;;;5047791;28;20029;-56
2021/12/02 10:10:39;;;;;;;3.53;1.42;;;1.70;99.90;;;;;;5042750;28;20061;-58
2021/12/02 10:13:28;;;;;;;4.82;1.83;;;1.70;99.90;;;;;;5030525;28;20385;-56
2021/12/02 10:16:17;;;;;;;5.07;1.13;;;1.70;99.90;;;;;;5030176;28;20025;-57
2021/12/02 10:19:11;;;;;;;5.47;1.38;;;1.70;99.90;;;;;;5042505;28;20032;-55
2021/12/02 10:21:42;;;;;;;3.67;1.48;;;1.70;99.90;;;;;;5029824;28;20120;-54
2021/12/02 10:24:11;;;;;;;5.90;1.58;;;1.70;99.90;;;;;;5032132;28;20020;-60
2021/12/02 10:26:43;;;;;;;3.15;1.38;;;1.70;99.90;;;;;;5049297;28;20060;-56
2021/12/02 10:29:15;;;;;;;4.15;1.23;;;1.80;99.90;;;;;;5049542;28;20455;-54
2021/12/02 10:31:46;;;;;;;5.65;1.38;;;1.80;99.90;;;;;;5049905;28;20447;-57
2021/12/02 10:34:12;;;;;;;5.60;1.52;;;1.70;99.90;;;;;;5048267;28;20021;-56
2021/12/02 10:36:45;;;;;;;3.33;1.02;;;1.70;99.90;;;;;;5049436;28;20025;-55
2021/12/02 10:39:17;;;;;;;5.75;1.42;;;1.70;99.90;;;;;;5049632;28;20036;-54
2021/12/02 10:42:10;;;;;;;5.50;1.27;;;1.70;99.90;;;;;;5037748;28;20220;-56
2021/12/02 10:44:39;;;;;;;3.40;0.98;;;1.70;99.90;;;;;;5008799;28;20030;-54
2021/12/02 10:47:10;;;;;;;4.95;1.33;;;1.70;99.90;;;;;;5024794;28;20075;-54
2021/12/02 10:49:49;;;;;;;6.22;1.25;;;1.70;99.90;;;;;;5028662;28;20316;-58
2021/12/02 10:52:18;;;;;;;5.53;1.13;;;1.70;99.90;;;;;;5029767;28;20018;-54
2021/12/02 10:54:47;;;;;;;5.68;1.27;;;1.70;99.90;;;;;;5029660;28;20426;-60
2021/12/02 10:57:25;;;;;;;1.92;1.05;;;1.70;99.90;;;;;;5048038;28;20013;-57
2021/12/02 10:59:53;;;;;;;1.67;0.95;;;1.80;99.90;;;;;;5049522;28;20045;-57
2021/12/02 11:02:22;;;;;;;4.40;1.38;;;1.80;99.90;;;;;;5047159;28;20555;-54
2021/12/02 11:04:59;;;;;;;6.95;1.85;;;1.80;99.90;;;;;;5048519;28;20378;-56
2021/12/02 11:07:30;;;;;;;7.93;2.55;;;1.80;99.90;;;;;;5047816;28;20346;-54
2021/12/02 11:09:58;;;;;;;4.68;1.52;;;1.80;99.90;;;;;;5046732;28;20055;-53
2021/12/02 11:12:29;;;;;;;16.63;2.67;;;1.70;99.90;;;;;;5029469;28;20065;-55
2021/12/02 11:15:18;;;;;;;2.47;1.10;;;1.70;99.90;;;;;;5031026;28;20029;-53
2021/12/02 11:17:50;;;;;;;4.57;1.00;;;1.70;99.90;;;;;;5048670;28;20566;-58
2021/12/02 11:20:18;;;;;;;3.42;1.52;;;1.80;99.90;;;;;;5047770;28;20517;-54
2021/12/02 11:22:44;;;;;;;5.47;1.10;;;1.70;99.90;;;;;;5046277;28;20036;-52
2021/12/02 11:25:11;;;;;;;2.92;1.30;;;1.70;99.90;;;;;;5044122;28;20485;-49
2021/12/02 11:27:46;;;;;;;2.60;1.17;;;1.70;99.90;;;;;;5047807;28;20056;-51
2021/12/02 11:30:14;;;;;;;4.80;1.10;;;1.70;99.90;;;;;;5048812;28;20028;-48
2021/12/02 11:33:00;;;;;;;4.95;1.90;;;1.60;99.90;;;;;;5047728;28;20048;-50
2021/12/02 11:35:38;;;;;;;6.95;1.65;;;1.70;99.90;;;;;;5042600;28;20125;-55
2021/12/02 11:38:14;;;;;;;3.30;1.17;;;1.70;99.90;;;;;;5028704;28;20025;-56
2021/12/02 11:40:46;;;;;;;8.05;1.70;;;1.60;99.90;;;;;;5028931;28;20075;-53
2021/12/02 11:43:16;;;;;;;10.10;1.77;;;1.60;99.90;;;;;;5027304;28;20057;-56
2021/12/02 11:45:46;;;;;;;3.95;1.20;;;1.60;99.90;;;;;;5028031;28;20017;-56
2021/12/02 11:48:18;;;;;;;4.85;1.85;;;1.60;99.90;;;;;;5028150;28;20056;-55
2021/12/02 11:50:45;;;;;;;3.08;1.55;;;1.50;99.90;;;;;;5028526;28;20053;-57
2021/12/02 11:53:14;;;;;;;4.60;1.67;;;1.50;99.90;;;;;;5028610;28;20192;-56
2021/12/02 11:55:42;;;;;;;3.45;1.45;;;1.50;99.90;;;;;;5028374;28;20105;-52
2021/12/02 11:58:09;;;;;;;8.50;1.77;;;1.50;99.90;;;;;;5028306;28;20080;-54
2021/12/02 12:00:36;;;;;;;4.35;1.70;;;1.60;99.90;;;;;;5028470;28;20025;-52
2021/12/02 12:03:09;;;;;;;4.55;1.67;;;1.60;99.90;;;;;;5028602;28;20025;-60
2021/12/02 12:05:52;;;;;;;3.45;1.55;;;1.60;99.90;;;;;;5028546;28;20509;-51
2021/12/02 12:08:49;;;;;;;3.47;1.55;;;1.60;99.90;;;;;;5028203;28;20029;-56
2021/12/02 12:11:25;;;;;;;4.85;1.42;;;1.60;99.90;;;;;;5020281;28;20417;-55
2021/12/02 12:14:03;;;;;;;6.78;1.38;;;1.60;99.90;;;;;;5027917;28;20045;-53
2021/12/02 12:16:42;;;;;;;4.82;1.50;;;1.60;99.90;;;;;;5028438;28;20029;-56
2021/12/02 12:19:31;;;;;;;6.85;1.60;;;1.60;99.90;;;;;;5027482;28;20033;-58
2021/12/02 12:22:04;;;;;;;5.40;1.45;;;1.80;99.90;;;;;;5042494;28;20032;-54
2021/12/02 12:24:49;;;;;;;3.58;1.63;;;1.80;99.90;;;;;;5047629;28;20100;-55
2021/12/02 12:27:22;;;;;;;4.63;1.60;;;1.80;99.90;;;;;;5048155;28;20512;-57
2021/12/02 12:30:19;;;;;;;3.97;1.60;;;1.90;99.90;;;;;;5044208;28;20033;-52
2021/12/02 12:33:09;;;;;;;3.30;1.47;;;1.90;99.90;;;;;;5019498;28;20145;-56
2021/12/02 12:36:04;;;;;;;5.07;1.17;;;1.90;99.90;;;;;;5027647;28;20268;-55
2021/12/02 12:38:34;;;;;;;5.43;0.85;;;2.00;99.90;;;;;;5026679;28;20021;-51
2021/12/02 12:41:11;;;;;;;6.43;1.20;;;2.00;99.90;;;;;;5036179;28;20056;-51
2021/12/02 12:43:45;;;;;;;2.38;1.10;;;2.00;99.90;;;;;;5047723;28;20503;-56
2021/12/02 12:46:26;;;;;;;2.85;0.85;;;2.00;99.90;;;;;;5046873;28;20025;-60
2021/12/02 12:48:55;;;;;;;10.00;1.48;;;2.10;99.90;;;;;;5031167;28;20029;-55
2021/12/02 12:51:28;;;;;;;3.13;1.42;;;2.00;99.90;;;;;;5021745;28;20057;-53
2021/12/02 12:53:55;;;;;;;7.15;1.50;;;2.00;99.90;;;;;;5016052;28;20054;-54
2021/12/02 12:56:34;;;;;;;2.83;1.20;;;1.90;99.90;;;;;;5026437;28;20629;-55
2021/12/02 12:59:07;;;;;;;2.92;1.50;;;1.90;99.90;;;;;;5043061;28;20022;-53
2021/12/02 13:01:34;;;;;;;5.00;1.42;;;1.80;99.90;;;;;;5045119;28;20025;-54
2021/12/02 13:04:07;;;;;;;5.63;1.80;;;1.80;99.90;;;;;;5026375;28;20405;-55
2021/12/02 13:06:52;;;;;;;5.93;2.40;;;1.80;99.90;;;;;;5020550;28;20018;-52
2021/12/02 13:10:04;;;;;;;4.50;2.05;;;1.80;99.90;;;;;;5034489;28;20028;-54
2021/12/02 13:12:44;;;;;;;2.00;1.33;;;1.80;99.90;;;;;;5045565;28;20037;-53
2021/12/02 13:15:09;;;;;;;4.05;1.45;;;1.70;99.90;;;;;;5014015;28;20022;-59
2021/12/02 13:17:44;;;;;;;5.82;2.08;;;1.70;99.90;;;;;;5021831;28;20503;-52
2021/12/02 13:20:18;;;;;;;4.80;1.65;;;1.70;99.90;;;;;;5023129;28;20497;-58
2021/12/02 13:23:05;;;;;;;3.03;1.73;;;1.70;99.90;;;;;;5020057;28;20030;-56
2021/12/02 13:25:47;;;;;;;7.80;1.98;;;1.70;99.90;;;;;;5019433;28;20030;-52
2021/12/02 13:28:18;;;;;;;3.90;1.00;;;1.70;99.90;;;;;;5027996;28;20061;-52